Terminal Aerodrome Forecast
Issued by NWS

Home | Current Version | Previous Version | Text Only | Print | Product List | Glossary Off
Versions: 1 2 3 4 5 6 7 8 9 10 11 12 13 14 15 16 17 18 19 20 21 22

000
FTUS43 KGLD 272320
TAFMCK
TAF
KMCK 272320Z 2800/2824 30010G16KT P6SM VCSH BKN080
     FM280700 32010KT P6SM BKN120
      TEMPO 2810/2814 5SM BR SCT020
     FM281400 34015KT P6SM SCT060
     FM281900 01010G18KT P6SM SCT200=

USA.gov is the U.S. government's official web portal to all federal, state and local government web resources and services.